Glacier Park International Airport
KGPI : rendu visible

Aérodrome :











RETROUVEZ-NOUS SUR...

 
LOGIN :

S'inscrire | Disclaimer

   EN    FR    IT 

 









Légende :    VFR   VFR Marginal   IFR   IFR Intensif   IFR Très Intensif
Visi : 
Plafond : 
>= 8 km
>= 3000ft
5 à 8 km
1000 à 3000 ft
1500m à 5 km
500 à 1000 ft
800 à 1500m
200 à 500 ft
< 800m
< 200 ft
Symboles :   Orages  Brouillard  Fortes neiges  Fortes précipitations  Vent > 20 kt






- Altitude de l'aérodrome : 2977 ft
- Code IATA : FCA


KGPI - Glacier Park International

DERNIER METAR :
  • 231055Z AUTO 00000KT 10SM OVC060 M01/M03 A2996 RMK AO2 SLP163 T10111033 TSNO

METARs EXPIRÉS :
  • 230955Z AUTO 00000KT 10SM OVC050 M01/M03 A2997 RMK AO2 SLP166 T10111033 TSNO
  • 230855Z AUTO 00000KT 10SM OVC070 M02/M04 A2997 RMK AO2 SLP165 T10171044 56014 TSNO

TAF KGPI
Valide du 23 à 12h jusqu'au 24 à 12h UTC


231120Z 2312/2412 VRB03KT P6SM OVC050
FM232000 18005KT 6SM -RASN OVC040
FM232200 18008KT 4SM -SN BR OVC025
FM240000 20012G20KT 6SM -SN OVC040
FM240200 24008KT P6SM VCSH SCT025 BKN040



MET'MAP, la Météo Aéronautique d'un coup d'oeil ! - Copyright ORBIFLY Décembre 2007 - Disclaimer

ORBIFLY MET'MAP TEAM :

Programmation & Développement : Alexandra Zaïnal
Sur une idée originale de : Baudouin d'Aumeries
Assistance à la programmation : Marc-Olivier Méhu
Soutien technique & logistique : Manuel Goepfert

Contact : metmap@orbifly.com




SOURCES & CREDITS :

   NOAA       Earth
Advisory